KGJT/GJT METAR and TAF weather

Enter ICAO airport designator
Station Type Date Time Source
KGJT METAR 2018/12/13 21:53 UTC NOAA

KGJT 132153Z 16004KT 10SM CLR 03/M11 A3040 RMK AO2 SLP313 T00281106


Station Type Date Time Source
KGJT Decoded METAR 2018/12/13 21:53 UTC NOAA

GRAND JUNCTION WALKER FIELD, CO, United States (KGJT) 39-08N 108-32W 1452M
Dec 13, 2018 - 04:53 PM EST / 2018.12.13 2153 UTC
Wind: from the SSE (160 degrees) at 5 MPH (4 KT):0
Visibility: 10 mile(s):0
Sky conditions: clear
Temperature: 37.0 F (2.8 C)
Dew Point: 12.9 F (-10.6 C)
Relative Humidity: 36%
Pressure (altimeter): 30.4 in. Hg (1029 hPa)
ob: KGJT 132153Z 16004KT 10SM CLR 03/M11 A3040 RMK AO2 SLP313 T00281106
cycle: 22

Station Type Date Time Source
KGJT TAF 2018/12/13 18:27 UTC NOAA

TAF KGJT 131726Z 1318/1418 VRB05KT P6SM SKC


Example: see airport list